createdAt,value
2022-08-24T00:00:22.048Z,24.42
2022-08-24T00:02:50.306Z,24.69
2022-08-24T00:05:19.960Z,24.66
2022-08-24T00:07:49.154Z,24.54
2022-08-24T00:10:17.198Z,24.61
2022-08-24T00:12:45.165Z,24.73
2022-08-24T00:15:13.192Z,24.75
2022-08-24T00:17:40.718Z,24.55
2022-08-24T00:20:09.299Z,24.46
2022-08-24T00:22:36.739Z,24.42
2022-08-24T00:25:04.352Z,24.51
2022-08-24T00:27:32.319Z,24.25
2022-08-24T00:29:59.953Z,24.37
2022-08-24T00:32:29.598Z,24.27
2022-08-24T00:34:58.867Z,24.15
2022-08-24T00:37:28.811Z,24.20
2022-08-24T00:39:56.508Z,24.23
2022-08-24T00:42:24.507Z,24.18
2022-08-24T00:44:52.245Z,24.07
2022-08-24T00:47:21.313Z,24.07
2022-08-24T00:49:54.665Z,23.91
2022-08-24T00:52:25.426Z,23.96
2022-08-24T00:54:55.198Z,23.96
2022-08-24T00:57:23.626Z,24.01
2022-08-24T00:59:52.759Z,24.01
2022-08-24T01:02:25.245Z,23.97
2022-08-24T01:04:54.845Z,23.93
2022-08-24T01:07:23.291Z,23.92
2022-08-24T01:09:54.397Z,23.84
2022-08-24T01:12:21.985Z,23.99
2022-08-24T01:14:49.491Z,23.80
2022-08-24T01:17:39.023Z,23.93
2022-08-24T01:20:08.522Z,23.76
2022-08-24T01:22:54.650Z,23.96
2022-08-24T01:25:22.728Z,23.87
2022-08-24T01:27:50.173Z,23.77
2022-08-24T01:30:17.972Z,23.59
2022-08-24T01:32:58.336Z,23.69
2022-08-24T01:35:26.077Z,23.52
2022-08-24T01:37:54.630Z,23.68
2022-08-24T01:40:22.612Z,23.79
2022-08-24T01:42:50.902Z,23.50
2022-08-24T01:45:19.061Z,23.68
2022-08-24T01:47:48.030Z,23.58
2022-08-24T01:50:15.428Z,23.53
2022-08-24T01:53:03.849Z,23.71
2022-08-24T01:55:30.756Z,23.48
2022-08-24T01:57:59.060Z,23.55
2022-08-24T02:00:29.236Z,23.59
2022-08-24T02:02:57.306Z,23.61
2022-08-24T02:05:24.908Z,23.40
2022-08-24T02:07:52.446Z,23.42
2022-08-24T02:10:21.435Z,23.44
2022-08-24T02:12:58.059Z,23.30
2022-08-24T02:15:38.887Z,23.36
2022-08-24T02:18:15.159Z,23.38
2022-08-24T02:20:43.577Z,23.40
2022-08-24T02:23:10.954Z,23.24
2022-08-24T02:25:38.540Z,23.16
2022-08-24T02:28:05.960Z,23.00
2022-08-24T02:30:34.142Z,23.32
2022-08-24T02:33:01.685Z,23.09
2022-08-24T02:35:29.935Z,23.06
2022-08-24T02:37:58.016Z,22.89
2022-08-24T02:40:27.405Z,22.89
2022-08-24T02:42:55.907Z,23.07
2022-08-24T02:45:24.037Z,23.08
2022-08-24T02:47:51.457Z,23.02
2022-08-24T02:50:20.327Z,22.74
2022-08-24T02:52:47.805Z,22.90
2022-08-24T02:55:16.393Z,22.92
2022-08-24T02:57:50.826Z,22.84
2022-08-24T03:00:19.600Z,22.73
2022-08-24T03:02:51.946Z,22.82
2022-08-24T03:05:20.067Z,22.70
2022-08-24T03:07:47.535Z,22.59
2022-08-24T03:10:17.545Z,22.58
2022-08-24T03:12:45.532Z,22.63
2022-08-24T03:15:13.412Z,22.69
2022-08-24T03:17:42.066Z,22.69
2022-08-24T03:20:12.072Z,22.87
2022-08-24T03:22:40.501Z,22.63
2022-08-24T03:25:08.792Z,22.51
2022-08-24T03:27:36.858Z,22.53
2022-08-24T03:30:05.024Z,22.50
2022-08-24T03:32:33.147Z,22.44
2022-08-24T03:35:02.450Z,22.56
2022-08-24T03:37:30.155Z,22.52
2022-08-24T03:39:57.728Z,22.75
2022-08-24T03:42:25.697Z,22.53
2022-08-24T03:44:53.384Z,22.67
2022-08-24T03:47:22.877Z,22.53
2022-08-24T03:49:50.648Z,22.73
2022-08-24T03:52:18.035Z,22.67
2022-08-24T03:54:46.057Z,22.64
2022-08-24T03:57:14.587Z,22.73
2022-08-24T03:59:46.421Z,22.77
2022-08-24T04:02:15.087Z,22.84
2022-08-24T04:04:43.180Z,22.79
2022-08-24T04:07:12.152Z,22.85
2022-08-24T04:09:39.726Z,22.77
2022-08-24T04:12:08.608Z,22.99
2022-08-24T04:14:36.699Z,23.13
2022-08-24T04:17:14.582Z,23.01
2022-08-24T04:19:57.955Z,23.13
2022-08-24T04:22:31.999Z,23.36
2022-08-24T04:24:59.439Z,23.27
2022-08-24T04:27:28.782Z,23.21
2022-08-24T04:29:56.837Z,23.29
2022-08-24T04:32:26.168Z,23.42
2022-08-24T04:34:56.402Z,23.37
2022-08-24T04:37:28.936Z,23.39
2022-08-24T04:39:57.798Z,23.55
2022-08-24T04:42:29.029Z,23.60
2022-08-24T04:44:57.141Z,23.76
2022-08-24T04:47:24.910Z,23.93
2022-08-24T04:49:52.452Z,23.86
2022-08-24T04:52:20.129Z,23.92
2022-08-24T04:54:47.719Z,24.09
2022-08-24T04:57:20.261Z,24.07
2022-08-24T04:59:49.313Z,24.10
2022-08-24T05:02:17.511Z,24.20
2022-08-24T05:04:48.603Z,24.33
2022-08-24T05:07:16.251Z,24.42
2022-08-24T05:09:44.886Z,24.45
2022-08-24T05:12:12.564Z,24.54
2022-08-24T05:14:48.172Z,24.46
2022-08-24T05:17:15.965Z,24.44
2022-08-24T05:19:43.675Z,24.64
2022-08-24T05:22:11.919Z,24.54
2022-08-24T05:24:44.648Z,24.74
2022-08-24T05:27:14.318Z,24.71
2022-08-24T05:29:43.231Z,24.77
2022-08-24T05:32:11.420Z,24.79
2022-08-24T05:34:39.085Z,24.85
2022-08-24T05:37:07.007Z,24.77
2022-08-24T05:40:10.533Z,24.76
2022-08-24T05:42:40.574Z,24.94
2022-08-24T05:45:08.799Z,24.91
2022-08-24T05:47:36.478Z,25.01
2022-08-24T05:50:11.916Z,25.06
2022-08-24T05:52:39.479Z,25.10
2022-08-24T05:55:07.465Z,25.16
2022-08-24T05:57:35.378Z,25.06
2022-08-24T06:00:33.630Z,25.10
2022-08-24T06:03:01.220Z,25.04
2022-08-24T06:05:29.076Z,25.14
2022-08-24T06:07:57.654Z,25.20
2022-08-24T06:10:40.993Z,25.31
2022-08-24T06:13:09.709Z,25.33
2022-08-24T06:15:37.842Z,25.47
2022-08-24T06:18:05.707Z,25.64
2022-08-24T06:20:33.657Z,25.82
2022-08-24T06:23:01.250Z,26.00
2022-08-24T06:25:57.535Z,25.98
2022-08-24T06:28:25.374Z,26.25
2022-08-24T06:31:01.479Z,26.33
2022-08-24T06:33:30.186Z,26.35
2022-08-24T06:35:59.099Z,26.52
2022-08-24T06:38:26.609Z,26.55
2022-08-24T06:40:54.546Z,26.60
2022-08-24T06:43:22.916Z,26.77
2022-08-24T06:45:55.217Z,26.89
2022-08-24T06:48:30.549Z,27.01
2022-08-24T06:50:58.316Z,27.18
2022-08-24T06:53:25.872Z,27.31
2022-08-24T06:55:58.150Z,27.20
2022-08-24T06:58:26.502Z,27.48
2022-08-24T07:00:57.136Z,27.57
2022-08-24T07:03:25.405Z,27.75
2022-08-24T07:06:04.768Z,27.81
2022-08-24T07:08:42.439Z,27.88
2022-08-24T07:11:11.693Z,27.94
2022-08-24T07:13:39.795Z,28.17
2022-08-24T07:16:07.474Z,28.33
2022-08-24T07:18:37.358Z,28.59
2022-08-24T07:21:05.510Z,29.21
2022-08-24T07:23:46.595Z,31.77
2022-08-24T07:26:22.105Z,34.49
2022-08-24T07:28:53.131Z,35.69
2022-08-24T07:31:22.493Z,35.61
2022-08-24T07:34:07.380Z,36.11
2022-08-24T07:36:35.878Z,35.81
2022-08-24T07:39:04.865Z,35.95
2022-08-24T07:41:51.543Z,36.94
2022-08-24T07:44:23.013Z,38.05
2022-08-24T07:46:52.662Z,38.88
2022-08-24T07:49:33.019Z,38.48
2022-08-24T07:52:04.545Z,37.76
2022-08-24T07:54:32.158Z,38.95
2022-08-24T07:56:59.952Z,38.90
2022-08-24T07:59:27.714Z,39.48
2022-08-24T08:01:56.249Z,38.64
2022-08-24T08:04:25.218Z,39.11
2022-08-24T08:06:53.750Z,38.20
2022-08-24T08:09:21.701Z,37.71
2022-08-24T08:11:49.815Z,38.24
2022-08-24T08:14:17.400Z,38.87
2022-08-24T08:16:45.938Z,38.83
2022-08-24T08:19:14.468Z,38.58
2022-08-24T08:22:06.527Z,38.96
2022-08-24T08:24:39.890Z,39.21
2022-08-24T08:27:08.183Z,38.83
2022-08-24T08:29:40.421Z,37.89
2022-08-24T08:32:08.653Z,38.84
2022-08-24T08:34:36.918Z,39.22
2022-08-24T08:37:04.627Z,38.56
2022-08-24T08:39:32.511Z,38.45
2022-08-24T08:42:06.336Z,38.21
2022-08-24T08:44:38.779Z,37.02
2022-08-24T08:47:12.749Z,37.50
2022-08-24T08:49:59.214Z,38.13
2022-08-24T08:52:45.775Z,38.95
2022-08-24T08:55:16.401Z,38.02
2022-08-24T08:58:02.954Z,38.98
2022-08-24T09:00:45.246Z,38.75
2022-08-24T09:03:32.945Z,39.81
2022-08-24T09:06:33.192Z,40.77
2022-08-24T09:09:01.172Z,40.26
2022-08-24T09:11:32.462Z,40.00
2022-08-24T09:14:18.970Z,40.01
2022-08-24T09:17:12.291Z,39.81
2022-08-24T09:19:47.523Z,40.63
2022-08-24T09:22:16.601Z,39.73
2022-08-24T09:24:54.050Z,39.78
2022-08-24T09:28:01.598Z,39.56
2022-08-24T09:30:49.841Z,38.88
2022-08-24T09:33:20.674Z,39.33
2022-08-24T09:36:01.947Z,39.37
2022-08-24T09:38:35.153Z,39.12
2022-08-24T09:41:05.726Z,38.02
2022-08-24T09:43:49.148Z,38.56
2022-08-24T09:46:35.644Z,38.59
2022-08-24T09:49:14.011Z,37.74
2022-08-24T09:51:42.254Z,38.47
2022-08-24T09:54:12.768Z,38.06
2022-08-24T09:56:43.440Z,37.69
2022-08-24T09:59:10.945Z,38.31
2022-08-24T10:01:57.011Z,38.92
2022-08-24T10:04:27.695Z,38.96
2022-08-24T10:07:02.313Z,38.25
2022-08-24T10:09:32.968Z,38.27
2022-08-24T10:12:04.437Z,38.43
2022-08-24T10:14:50.685Z,37.95
2022-08-24T10:17:21.200Z,38.70
2022-08-24T10:19:49.147Z,38.78
2022-08-24T10:22:29.229Z,39.02
2022-08-24T10:25:09.203Z,38.91
2022-08-24T10:27:46.122Z,38.76
2022-08-24T10:30:27.782Z,39.07
2022-08-24T10:33:11.453Z,38.74
2022-08-24T10:35:59.165Z,39.26
2022-08-24T10:39:04.261Z,39.33
2022-08-24T10:41:47.086Z,38.50
2022-08-24T10:44:24.173Z,38.37
2022-08-24T10:47:01.835Z,39.05
2022-08-24T10:49:35.382Z,39.10
2022-08-24T10:52:14.841Z,37.83
2022-08-24T10:54:42.497Z,38.56
2022-08-24T10:57:18.212Z,39.05
2022-08-24T11:00:06.198Z,38.87
2022-08-24T11:02:35.801Z,38.91
2022-08-24T11:05:08.366Z,38.80
2022-08-24T11:07:36.498Z,39.13
2022-08-24T11:10:06.733Z,38.20
2022-08-24T11:12:38.854Z,38.46
2022-08-24T11:15:18.521Z,38.31
2022-08-24T11:17:56.819Z,38.04
2022-08-24T11:20:29.011Z,38.35
2022-08-24T11:23:02.420Z,38.57
2022-08-24T11:25:30.510Z,37.28
2022-08-24T11:27:59.156Z,35.97
2022-08-24T11:30:27.958Z,35.57
2022-08-24T11:32:55.574Z,37.13
2022-08-24T11:35:32.331Z,37.95
2022-08-24T11:38:14.137Z,38.36
2022-08-24T11:40:42.883Z,38.57
2022-08-24T11:43:16.626Z,38.96
2022-08-24T11:46:02.474Z,38.34
2022-08-24T11:48:31.987Z,39.03
2022-08-24T11:51:08.555Z,38.61
2022-08-24T11:53:56.532Z,38.22
2022-08-24T11:56:25.535Z,37.85
2022-08-24T11:59:11.643Z,37.70
2022-08-24T12:02:00.109Z,37.47
2022-08-24T12:04:46.634Z,37.31
2022-08-24T12:07:20.307Z,37.24
2022-08-24T12:09:47.708Z,37.36
2022-08-24T12:12:21.274Z,37.13
2022-08-24T12:15:02.545Z,37.28
2022-08-24T12:18:05.921Z,37.40
2022-08-24T12:20:41.657Z,37.53
2022-08-24T12:23:15.217Z,37.51
2022-08-24T12:26:01.344Z,37.40
2022-08-24T12:28:37.299Z,37.36
2022-08-24T12:31:10.167Z,37.43
2022-08-24T12:33:37.921Z,37.66
2022-08-24T12:36:08.254Z,37.55
2022-08-24T12:38:39.715Z,36.51
2022-08-24T12:41:26.103Z,35.69
2022-08-24T12:44:13.006Z,35.44
2022-08-24T12:46:43.170Z,34.32
2022-08-24T12:49:18.547Z,34.50
2022-08-24T12:51:49.231Z,34.86
2022-08-24T12:54:35.128Z,34.35
2022-08-24T12:57:02.925Z,34.55
2022-08-24T12:59:30.455Z,34.59
2022-08-24T13:02:01.671Z,34.53
2022-08-24T13:04:53.123Z,34.02
2022-08-24T13:07:24.045Z,34.53
2022-08-24T13:09:57.722Z,34.67
2022-08-24T13:12:31.245Z,34.45
2022-08-24T13:15:17.250Z,34.32
2022-08-24T13:17:44.745Z,34.31
2022-08-24T13:20:17.426Z,34.07
2022-08-24T13:22:48.802Z,33.68
2022-08-24T13:25:25.175Z,34.21
2022-08-24T13:28:15.446Z,34.43
2022-08-24T13:31:02.859Z,33.72
2022-08-24T13:33:36.451Z,36.70
2022-08-24T13:36:07.308Z,38.29
2022-08-24T13:38:34.921Z,38.18
2022-08-24T13:41:09.144Z,37.66
2022-08-24T13:43:45.999Z,37.43
2022-08-24T13:46:16.188Z,38.17
2022-08-24T13:48:52.953Z,38.21
2022-08-24T13:51:32.951Z,37.85
2022-08-24T13:54:04.074Z,38.21
2022-08-24T13:56:38.013Z,38.06
2022-08-24T13:59:22.610Z,37.17
2022-08-24T14:02:02.742Z,37.30
2022-08-24T14:04:37.275Z,37.02
2022-08-24T14:07:15.661Z,36.51
2022-08-24T14:10:06.850Z,34.37
2022-08-24T14:12:41.477Z,33.95
2022-08-24T14:15:17.749Z,33.54
2022-08-24T14:18:07.831Z,33.30
2022-08-24T14:20:54.143Z,33.51
2022-08-24T14:23:25.383Z,33.47
2022-08-24T14:26:14.048Z,33.05
2022-08-24T14:28:42.410Z,33.17
2022-08-24T14:31:20.694Z,33.50
2022-08-24T14:33:54.346Z,33.10
2022-08-24T14:36:24.671Z,33.23
2022-08-24T14:39:04.211Z,33.55
2022-08-24T14:41:32.359Z,33.40
2022-08-24T14:44:20.684Z,32.97
2022-08-24T14:46:59.027Z,32.35
2022-08-24T14:49:34.668Z,32.40
2022-08-24T14:52:22.175Z,32.17
2022-08-24T14:54:53.517Z,32.27
2022-08-24T14:57:27.134Z,32.30
2022-08-24T14:59:58.791Z,32.25
2022-08-24T15:02:29.756Z,32.26
2022-08-24T15:05:06.752Z,32.19
2022-08-24T15:07:35.017Z,32.08
2022-08-24T15:10:02.926Z,32.06
2022-08-24T15:12:49.879Z,31.94
2022-08-24T15:15:40.743Z,32.09
2022-08-24T15:18:19.597Z,31.99
2022-08-24T15:21:06.654Z,31.95
2022-08-24T15:23:37.254Z,31.85
2022-08-24T15:26:19.159Z,31.78
2022-08-24T15:28:56.488Z,31.83
2022-08-24T15:31:25.977Z,31.76
2022-08-24T15:33:59.978Z,31.67
2022-08-24T15:36:28.470Z,31.71
2022-08-24T15:38:56.219Z,31.56
2022-08-24T15:41:24.879Z,31.62
2022-08-24T15:43:54.273Z,31.48
2022-08-24T15:46:23.373Z,31.62
2022-08-24T15:48:51.187Z,31.60
2022-08-24T15:51:31.418Z,31.45
2022-08-24T15:53:58.943Z,31.43
2022-08-24T15:56:26.377Z,31.27
2022-08-24T15:58:53.934Z,31.30
2022-08-24T16:01:41.030Z,31.08
2022-08-24T16:04:15.836Z,31.19
2022-08-24T16:06:45.389Z,31.08
2022-08-24T16:09:19.727Z,31.11
2022-08-24T16:11:49.023Z,30.75
2022-08-24T16:14:55.154Z,30.67
2022-08-24T16:17:39.108Z,30.72
2022-08-24T16:20:12.300Z,30.79
2022-08-24T16:22:40.997Z,30.53
2022-08-24T16:25:10.191Z,30.71
2022-08-24T16:27:58.011Z,31.01
2022-08-24T16:30:36.174Z,31.14
2022-08-24T16:33:06.022Z,30.89
2022-08-24T16:35:34.744Z,31.05
2022-08-24T16:38:04.022Z,31.10
2022-08-24T16:40:34.812Z,30.73
2022-08-24T16:43:03.395Z,30.48
2022-08-24T16:45:35.735Z,30.33
2022-08-24T16:48:04.135Z,30.18
2022-08-24T16:50:32.055Z,30.13
2022-08-24T16:53:00.355Z,30.08
2022-08-24T16:55:28.665Z,29.82
2022-08-24T16:57:56.323Z,29.69
2022-08-24T17:00:24.664Z,29.77
2022-08-24T17:02:52.119Z,29.75
2022-08-24T17:05:19.832Z,29.73
2022-08-24T17:07:47.403Z,29.63
2022-08-24T17:10:16.018Z,29.55
2022-08-24T17:12:43.790Z,29.28
2022-08-24T17:15:12.932Z,29.32
2022-08-24T17:17:40.588Z,29.36
2022-08-24T17:20:09.905Z,29.13
2022-08-24T17:22:38.371Z,29.02
2022-08-24T17:25:06.103Z,29.05
2022-08-24T17:27:34.333Z,29.10
2022-08-24T17:30:02.185Z,30.60
2022-08-24T17:32:29.751Z,32.24
2022-08-24T17:34:58.217Z,32.60
2022-08-24T17:37:25.832Z,32.86
2022-08-24T17:39:55.087Z,32.95
2022-08-24T17:42:49.042Z,32.91
2022-08-24T17:45:10.240Z,32.63
2022-08-24T17:47:38.391Z,32.65
2022-08-24T17:50:08.394Z,32.52
2022-08-24T17:52:37.169Z,32.48
2022-08-24T17:55:05.343Z,32.52
2022-08-24T17:57:33.049Z,32.80
2022-08-24T18:00:00.690Z,32.89
2022-08-24T18:02:28.323Z,32.86
2022-08-24T18:04:57.671Z,32.28
2022-08-24T18:07:49.438Z,32.48
2022-08-24T18:10:14.200Z,32.68
2022-08-24T18:12:41.811Z,31.88
2022-08-24T18:15:09.887Z,31.97
2022-08-24T18:17:38.211Z,31.96
2022-08-24T18:20:07.123Z,31.89
2022-08-24T18:22:34.894Z,31.58
2022-08-24T18:25:02.512Z,31.65
2022-08-24T18:27:30.376Z,31.70
2022-08-24T18:30:02.594Z,31.76
2022-08-24T18:32:31.207Z,31.94
2022-08-24T18:34:59.789Z,32.18
2022-08-24T18:37:27.298Z,32.25
2022-08-24T18:39:54.725Z,31.58
2022-08-24T18:42:22.207Z,31.88
2022-08-24T18:44:49.770Z,31.93
2022-08-24T18:47:17.553Z,31.85
2022-08-24T18:49:44.995Z,31.70
2022-08-24T18:52:13.407Z,31.81
2022-08-24T18:54:42.063Z,31.88
2022-08-24T18:57:09.534Z,31.38
2022-08-24T18:59:39.341Z,31.16
2022-08-24T19:02:29.372Z,31.34
2022-08-24T19:05:17.638Z,31.04
2022-08-24T19:07:47.030Z,30.66
2022-08-24T19:10:15.872Z,29.61
2022-08-24T19:12:47.419Z,29.02
2022-08-24T19:15:32.080Z,28.14
2022-08-24T19:18:05.290Z,28.11
2022-08-24T19:20:34.124Z,27.65
2022-08-24T19:23:06.053Z,27.38
2022-08-24T19:25:35.373Z,27.23
2022-08-24T19:28:03.566Z,27.20
2022-08-24T19:30:31.676Z,27.35
2022-08-24T19:32:59.454Z,27.30
2022-08-24T19:35:27.049Z,27.17
2022-08-24T19:37:54.662Z,27.23
2022-08-24T19:40:22.182Z,27.35
2022-08-24T19:42:51.084Z,27.28
2022-08-24T19:45:37.865Z,27.21
2022-08-24T19:48:06.200Z,27.08
2022-08-24T19:50:36.067Z,26.98
2022-08-24T19:53:04.494Z,27.15
2022-08-24T19:55:32.671Z,27.02
2022-08-24T19:58:06.117Z,26.73
2022-08-24T20:00:43.032Z,26.68
2022-08-24T20:03:15.680Z,26.94
2022-08-24T20:05:43.230Z,26.81
2022-08-24T20:08:11.099Z,26.63
2022-08-24T20:10:39.350Z,26.57
2022-08-24T20:13:07.096Z,26.59
2022-08-24T20:15:36.897Z,26.54
2022-08-24T20:18:04.531Z,26.30
2022-08-24T20:20:32.224Z,26.43
2022-08-24T20:23:03.362Z,26.25
2022-08-24T20:25:30.927Z,26.27
2022-08-24T20:28:25.514Z,26.32
2022-08-24T20:30:46.773Z,26.40
2022-08-24T20:33:15.466Z,26.21
2022-08-24T20:35:43.422Z,26.06
2022-08-24T20:38:13.525Z,26.14
2022-08-24T20:40:41.227Z,26.17
2022-08-24T20:43:08.634Z,26.05
2022-08-24T20:45:41.481Z,26.07
2022-08-24T20:48:12.156Z,26.30
2022-08-24T20:50:43.591Z,26.34
2022-08-24T20:53:11.659Z,25.88
2022-08-24T20:55:39.766Z,25.92
2022-08-24T20:58:07.243Z,26.10
2022-08-24T21:00:34.754Z,26.06
2022-08-24T21:03:04.116Z,25.88
2022-08-24T21:05:31.766Z,25.92
2022-08-24T21:07:59.361Z,25.90
2022-08-24T21:10:27.762Z,25.90
2022-08-24T21:12:55.698Z,25.91
2022-08-24T21:15:23.528Z,25.72
2022-08-24T21:17:51.129Z,25.97
2022-08-24T21:20:18.691Z,25.91
2022-08-24T21:22:46.361Z,25.88
2022-08-24T21:25:14.697Z,25.88
2022-08-24T21:27:44.275Z,25.86
2022-08-24T21:30:13.065Z,25.62
2022-08-24T21:32:59.388Z,25.48
2022-08-24T21:35:26.967Z,25.62
2022-08-24T21:37:55.406Z,25.67
2022-08-24T21:40:23.963Z,25.63
2022-08-24T21:42:51.614Z,25.38
2022-08-24T21:45:19.234Z,25.25
2022-08-24T21:47:47.132Z,25.56
2022-08-24T21:50:14.958Z,25.64
2022-08-24T21:52:43.180Z,25.51
2022-08-24T21:55:14.802Z,25.36
2022-08-24T21:57:42.698Z,25.24
2022-08-24T22:00:13.573Z,25.37
2022-08-24T22:02:42.274Z,25.35
2022-08-24T22:05:09.881Z,25.14
2022-08-24T22:07:37.369Z,25.07
2022-08-24T22:10:05.507Z,25.16
2022-08-24T22:12:33.058Z,25.01
2022-08-24T22:15:00.808Z,25.06
2022-08-24T22:17:28.196Z,24.99
2022-08-24T22:19:55.673Z,25.14
2022-08-24T22:22:23.161Z,25.20
2022-08-24T22:24:50.731Z,25.21
2022-08-24T22:27:18.610Z,24.92
2022-08-24T22:29:50.654Z,25.24
2022-08-24T22:32:19.854Z,24.96
2022-08-24T22:34:47.452Z,25.17
2022-08-24T22:37:15.018Z,24.89
2022-08-24T22:39:42.369Z,24.87
2022-08-24T22:42:10.101Z,25.02
2022-08-24T22:44:37.689Z,25.11
2022-08-24T22:47:13.150Z,24.90
2022-08-24T22:49:45.707Z,24.85
2022-08-24T22:52:13.697Z,24.70
2022-08-24T22:54:41.239Z,24.87
2022-08-24T22:57:09.293Z,24.67
2022-08-24T22:59:37.570Z,24.74
2022-08-24T23:02:12.770Z,24.74
2022-08-24T23:04:41.744Z,24.56
2022-08-24T23:07:09.458Z,24.45
2022-08-24T23:09:44.339Z,24.45
2022-08-24T23:12:15.379Z,24.77
2022-08-24T23:14:43.335Z,24.51
2022-08-24T23:17:10.907Z,24.69
2022-08-24T23:19:56.697Z,24.70
2022-08-24T23:22:24.156Z,24.72
2022-08-24T23:24:53.280Z,24.57
2022-08-24T23:27:20.736Z,24.61
2022-08-24T23:29:49.513Z,24.35
2022-08-24T23:32:17.635Z,24.31
2022-08-24T23:34:46.235Z,24.33
2022-08-24T23:37:15.611Z,24.14
2022-08-24T23:39:43.054Z,24.28
2022-08-24T23:42:10.461Z,24.24
2022-08-24T23:44:39.175Z,24.17
2022-08-24T23:47:06.721Z,24.25
2022-08-24T23:49:34.585Z,24.11
2022-08-24T23:52:02.104Z,24.17
2022-08-24T23:54:29.921Z,24.03
2022-08-24T23:56:57.681Z,23.84
2022-08-24T23:59:26.801Z,24.02
